sensor_id;sensor_type;location;lat;lon;timestamp;P1;durP1;ratioP1;P2;durP2;ratioP2
5999;SDS011;3028;49.468;7.694;2023-02-01T00:00:39;3.35;;;2.70;;
5999;SDS011;3028;49.468;7.694;2023-02-01T00:02:40;3.33;;;2.55;;
5999;SDS011;3028;49.468;7.694;2023-02-01T00:04:42;3.80;;;3.50;;
5999;SDS011;3028;49.468;7.694;2023-02-01T00:06:44;3.55;;;3.28;;
5999;SDS011;3028;49.468;7.694;2023-02-01T00:08:46;2.30;;;2.20;;
5999;SDS011;3028;49.468;7.694;2023-02-01T00:10:48;2.92;;;2.72;;
5999;SDS011;3028;49.468;7.694;2023-02-01T00:12:49;2.95;;;2.75;;
5999;SDS011;3028;49.468;7.694;2023-02-01T00:14:51;2.92;;;2.72;;
5999;SDS011;3028;49.468;7.694;2023-02-01T00:16:53;3.03;;;2.83;;
5999;SDS011;3028;49.468;7.694;2023-02-01T00:18:56;2.80;;;2.60;;
5999;SDS011;3028;49.468;7.694;2023-02-01T00:21:01;3.38;;;2.75;;
5999;SDS011;3028;49.468;7.694;2023-02-01T00:23:03;3.10;;;2.88;;
5999;SDS011;3028;49.468;7.694;2023-02-01T00:25:05;3.72;;;3.08;;
5999;SDS011;3028;49.468;7.694;2023-02-01T00:27:07;5.28;;;3.13;;
5999;SDS011;3028;49.468;7.694;2023-02-01T00:29:13;3.05;;;2.85;;
5999;SDS011;3028;49.468;7.694;2023-02-01T00:31:16;2.60;;;2.25;;
5999;SDS011;3028;49.468;7.694;2023-02-01T00:33:18;3.28;;;2.60;;
5999;SDS011;3028;49.468;7.694;2023-02-01T00:35:20;3.15;;;2.38;;
5999;SDS011;3028;49.468;7.694;2023-02-01T00:37:21;2.53;;;2.05;;
5999;SDS011;3028;49.468;7.694;2023-02-01T00:39:24;4.95;;;2.90;;
5999;SDS011;3028;49.468;7.694;2023-02-01T00:41:26;2.80;;;2.60;;
5999;SDS011;3028;49.468;7.694;2023-02-01T00:43:28;3.13;;;2.85;;
5999;SDS011;3028;49.468;7.694;2023-02-01T00:45:30;2.42;;;2.25;;
5999;SDS011;3028;49.468;7.694;2023-02-01T00:47:31;2.70;;;2.50;;
5999;SDS011;3028;49.468;7.694;2023-02-01T00:49:33;3.42;;;3.13;;
5999;SDS011;3028;49.468;7.694;2023-02-01T00:51:35;4.25;;;2.65;;
5999;SDS011;3028;49.468;7.694;2023-02-01T00:53:37;2.42;;;2.17;;
5999;SDS011;3028;49.468;7.694;2023-02-01T00:55:38;2.65;;;2.45;;
5999;SDS011;3028;49.468;7.694;2023-02-01T00:57:40;2.78;;;2.55;;
5999;SDS011;3028;49.468;7.694;2023-02-01T00:59:42;4.13;;;2.90;;
5999;SDS011;3028;49.468;7.694;2023-02-01T01:01:44;3.40;;;3.10;;
5999;SDS011;3028;49.468;7.694;2023-02-01T01:03:47;4.35;;;2.90;;
5999;SDS011;3028;49.468;7.694;2023-02-01T01:05:56;6.30;;;3.03;;
5999;SDS011;3028;49.468;7.694;2023-02-01T01:07:58;2.97;;;2.28;;
5999;SDS011;3028;49.468;7.694;2023-02-01T01:09:59;2.55;;;2.35;;
5999;SDS011;3028;49.468;7.694;2023-02-01T01:12:01;2.83;;;2.58;;
5999;SDS011;3028;49.468;7.694;2023-02-01T01:18:43;3.33;;;2.95;;
5999;SDS011;3028;49.468;7.694;2023-02-01T01:21:28;3.72;;;2.65;;
5999;SDS011;3028;49.468;7.694;2023-02-01T01:23:10;2.42;;;2.33;;
5999;SDS011;3028;49.468;7.694;2023-02-01T01:25:11;3.88;;;2.55;;
5999;SDS011;3028;49.468;7.694;2023-02-01T01:27:13;3.45;;;3.25;;
5999;SDS011;3028;49.468;7.694;2023-02-01T01:29:15;2.70;;;2.50;;
5999;SDS011;3028;49.468;7.694;2023-02-01T01:31:19;3.22;;;2.47;;
5999;SDS011;3028;49.468;7.694;2023-02-01T01:33:28;4.47;;;3.67;;
5999;SDS011;3028;49.468;7.694;2023-02-01T01:35:30;2.97;;;2.78;;
5999;SDS011;3028;49.468;7.694;2023-02-01T01:37:34;3.50;;;3.20;;
5999;SDS011;3028;49.468;7.694;2023-02-01T01:39:43;3.70;;;3.40;;
5999;SDS011;3028;49.468;7.694;2023-02-01T01:42:03;3.60;;;2.60;;
5999;SDS011;3028;49.468;7.694;2023-02-01T01:46:51;7.55;;;2.53;;
5999;SDS011;3028;49.468;7.694;2023-02-01T01:49:01;3.13;;;2.92;;
5999;SDS011;3028;49.468;7.694;2023-02-01T01:51:15;3.65;;;2.95;;
5999;SDS011;3028;49.468;7.694;2023-02-01T01:53:20;4.05;;;3.75;;
5999;SDS011;3028;49.468;7.694;2023-02-01T01:55:25;4.35;;;3.90;;
5999;SDS011;3028;49.468;7.694;2023-02-01T01:57:33;4.93;;;3.60;;
5999;SDS011;3028;49.468;7.694;2023-02-01T01:59:41;6.82;;;2.80;;
5999;SDS011;3028;49.468;7.694;2023-02-01T02:01:44;3.70;;;3.40;;
5999;SDS011;3028;49.468;7.694;2023-02-01T02:03:46;4.07;;;3.28;;
5999;SDS011;3028;49.468;7.694;2023-02-01T02:05:49;7.07;;;3.60;;
5999;SDS011;3028;49.468;7.694;2023-02-01T02:07:53;3.75;;;3.55;;
5999;SDS011;3028;49.468;7.694;2023-02-01T02:09:58;6.25;;;3.28;;
5999;SDS011;3028;49.468;7.694;2023-02-01T02:12:11;3.92;;;3.55;;
5999;SDS011;3028;49.468;7.694;2023-02-01T02:15:05;2.75;;;2.55;;
5999;SDS011;3028;49.468;7.694;2023-02-01T02:19:54;4.25;;;3.88;;
5999;SDS011;3028;49.468;7.694;2023-02-01T02:31:49;10.10;;;3.78;;
5999;SDS011;3028;49.468;7.694;2023-02-01T02:34:06;5.88;;;3.35;;
5999;SDS011;3028;49.468;7.694;2023-02-01T02:41:05;5.35;;;3.45;;
5999;SDS011;3028;49.468;7.694;2023-02-01T02:43:47;4.60;;;4.20;;
5999;SDS011;3028;49.468;7.694;2023-02-01T02:46:20;5.22;;;4.80;;
5999;SDS011;3028;49.468;7.694;2023-02-01T02:48:44;4.18;;;3.88;;
5999;SDS011;3028;49.468;7.694;2023-02-01T02:51:08;4.65;;;4.35;;
5999;SDS011;3028;49.468;7.694;2023-02-01T02:56:12;3.33;;;3.13;;
5999;SDS011;3028;49.468;7.694;2023-02-01T02:58:35;5.38;;;3.47;;
5999;SDS011;3028;49.468;7.694;2023-02-01T03:00:55;4.53;;;3.63;;
5999;SDS011;3028;49.468;7.694;2023-02-01T03:03:16;3.88;;;3.58;;
5999;SDS011;3028;49.468;7.694;2023-02-01T03:05:37;5.57;;;3.58;;
5999;SDS011;3028;49.468;7.694;2023-02-01T03:07:46;3.33;;;3.10;;
5999;SDS011;3028;49.468;7.694;2023-02-01T03:09:54;5.30;;;4.07;;
5999;SDS011;3028;49.468;7.694;2023-02-01T03:12:04;4.75;;;3.53;;
5999;SDS011;3028;49.468;7.694;2023-02-01T03:14:28;5.75;;;3.63;;
5999;SDS011;3028;49.468;7.694;2023-02-01T03:16:34;4.25;;;3.25;;
5999;SDS011;3028;49.468;7.694;2023-02-01T03:20:49;3.80;;;3.35;;
5999;SDS011;3028;49.468;7.694;2023-02-01T03:22:52;4.32;;;3.80;;
5999;SDS011;3028;49.468;7.694;2023-02-01T03:24:54;3.83;;;3.47;;
5999;SDS011;3028;49.468;7.694;2023-02-01T03:26:56;5.28;;;4.88;;
5999;SDS011;3028;49.468;7.694;2023-02-01T03:29:35;2.95;;;2.75;;
5999;SDS011;3028;49.468;7.694;2023-02-01T03:31:40;4.07;;;3.78;;
5999;SDS011;3028;49.468;7.694;2023-02-01T03:33:42;4.90;;;3.75;;
5999;SDS011;3028;49.468;7.694;2023-02-01T03:35:44;4.50;;;3.20;;
5999;SDS011;3028;49.468;7.694;2023-02-01T03:37:50;3.92;;;3.35;;
5999;SDS011;3028;49.468;7.694;2023-02-01T03:40:00;3.45;;;3.15;;
5999;SDS011;3028;49.468;7.694;2023-02-01T03:42:09;3.28;;;3.08;;
5999;SDS011;3028;49.468;7.694;2023-02-01T03:44:26;10.35;;;2.75;;
5999;SDS011;3028;49.468;7.694;2023-02-01T03:47:03;3.20;;;2.90;;
5999;SDS011;3028;49.468;7.694;2023-02-01T03:49:15;3.03;;;2.80;;
5999;SDS011;3028;49.468;7.694;2023-02-01T03:51:20;4.78;;;3.58;;
5999;SDS011;3028;49.468;7.694;2023-02-01T03:53:22;3.13;;;2.92;;
5999;SDS011;3028;49.468;7.694;2023-02-01T03:55:34;3.95;;;3.65;;
5999;SDS011;3028;49.468;7.694;2023-02-01T03:57:37;3.65;;;3.35;;
5999;SDS011;3028;49.468;7.694;2023-02-01T03:59:45;7.40;;;3.63;;
5999;SDS011;3028;49.468;7.694;2023-02-01T04:01:46;3.83;;;3.53;;
5999;SDS011;3028;49.468;7.694;2023-02-01T04:03:48;6.80;;;3.38;;
5999;SDS011;3028;49.468;7.694;2023-02-01T04:05:49;3.75;;;3.45;;
5999;SDS011;3028;49.468;7.694;2023-02-01T04:07:51;4.40;;;3.22;;
5999;SDS011;3028;49.468;7.694;2023-02-01T04:09:52;4.47;;;3.63;;
5999;SDS011;3028;49.468;7.694;2023-02-01T04:11:54;3.55;;;3.25;;
5999;SDS011;3028;49.468;7.694;2023-02-01T04:13:55;2.67;;;2.47;;
5999;SDS011;3028;49.468;7.694;2023-02-01T04:15:57;6.00;;;3.30;;
5999;SDS011;3028;49.468;7.694;2023-02-01T04:17:58;3.92;;;3.63;;
5999;SDS011;3028;49.468;7.694;2023-02-01T04:20:00;3.47;;;2.88;;
5999;SDS011;3028;49.468;7.694;2023-02-01T04:22:01;3.17;;;2.97;;
5999;SDS011;3028;49.468;7.694;2023-02-01T04:24:03;3.78;;;3.47;;
5999;SDS011;3028;49.468;7.694;2023-02-01T04:26:08;3.40;;;2.47;;
5999;SDS011;3028;49.468;7.694;2023-02-01T04:28:13;4.93;;;2.15;;
5999;SDS011;3028;49.468;7.694;2023-02-01T04:30:15;2.83;;;2.63;;
5999;SDS011;3028;49.468;7.694;2023-02-01T04:32:17;2.42;;;2.22;;
5999;SDS011;3028;49.468;7.694;2023-02-01T04:34:19;2.92;;;2.72;;
5999;SDS011;3028;49.468;7.694;2023-02-01T04:36:21;2.63;;;2.08;;
5999;SDS011;3028;49.468;7.694;2023-02-01T04:38:23;2.20;;;1.98;;
5999;SDS011;3028;49.468;7.694;2023-02-01T04:40:46;4.65;;;2.17;;
5999;SDS011;3028;49.468;7.694;2023-02-01T04:42:54;2.63;;;2.42;;
5999;SDS011;3028;49.468;7.694;2023-02-01T04:45:04;3.25;;;3.05;;
5999;SDS011;3028;49.468;7.694;2023-02-01T04:47:06;2.75;;;2.55;;
5999;SDS011;3028;49.468;7.694;2023-02-01T04:49:10;5.95;;;3.30;;
5999;SDS011;3028;49.468;7.694;2023-02-01T04:51:12;3.42;;;3.17;;
5999;SDS011;3028;49.468;7.694;2023-02-01T04:53:15;4.85;;;4.50;;
5999;SDS011;3028;49.468;7.694;2023-02-01T04:55:24;6.47;;;4.07;;
5999;SDS011;3028;49.468;7.694;2023-02-01T04:57:44;3.28;;;3.08;;
5999;SDS011;3028;49.468;7.694;2023-02-01T05:00:06;3.67;;;3.38;;
5999;SDS011;3028;49.468;7.694;2023-02-01T05:02:34;4.30;;;3.35;;
5999;SDS011;3028;49.468;7.694;2023-02-01T05:05:00;4.60;;;3.72;;
5999;SDS011;3028;49.468;7.694;2023-02-01T05:09:53;5.55;;;2.50;;
5999;SDS011;3028;49.468;7.694;2023-02-01T05:14:50;6.20;;;2.72;;
5999;SDS011;3028;49.468;7.694;2023-02-01T05:16:54;3.33;;;3.13;;
5999;SDS011;3028;49.468;7.694;2023-02-01T05:19:23;2.92;;;2.70;;
5999;SDS011;3028;49.468;7.694;2023-02-01T05:23:56;4.13;;;3.80;;
5999;SDS011;3028;49.468;7.694;2023-02-01T05:26:22;3.55;;;3.25;;
5999;SDS011;3028;49.468;7.694;2023-02-01T05:29:04;4.45;;;4.05;;
5999;SDS011;3028;49.468;7.694;2023-02-01T05:33:49;10.30;;;4.40;;
5999;SDS011;3028;49.468;7.694;2023-02-01T05:35:53;5.22;;;3.80;;
5999;SDS011;3028;49.468;7.694;2023-02-01T05:40:42;5.40;;;4.90;;
5999;SDS011;3028;49.468;7.694;2023-02-01T05:42:50;5.35;;;4.63;;
5999;SDS011;3028;49.468;7.694;2023-02-01T05:44:51;5.43;;;5.03;;
5999;SDS011;3028;49.468;7.694;2023-02-01T05:47:05;8.27;;;3.80;;
5999;SDS011;3028;49.468;7.694;2023-02-01T05:51:48;4.00;;;3.65;;
5999;SDS011;3028;49.468;7.694;2023-02-01T05:54:17;7.45;;;3.97;;
5999;SDS011;3028;49.468;7.694;2023-02-01T05:58:49;4.93;;;3.95;;
5999;SDS011;3028;49.468;7.694;2023-02-01T06:03:32;8.27;;;3.38;;
5999;SDS011;3028;49.468;7.694;2023-02-01T06:07:55;4.03;;;3.33;;
5999;SDS011;3028;49.468;7.694;2023-02-01T06:09:56;2.63;;;2.42;;
5999;SDS011;3028;49.468;7.694;2023-02-01T06:11:58;3.38;;;3.10;;
5999;SDS011;3028;49.468;7.694;2023-02-01T06:14:02;4.72;;;4.32;;
5999;SDS011;3028;49.468;7.694;2023-02-01T06:16:04;3.63;;;2.95;;
5999;SDS011;3028;49.468;7.694;2023-02-01T06:18:08;3.33;;;3.08;;
5999;SDS011;3028;49.468;7.694;2023-02-01T06:20:11;3.85;;;3.55;;
5999;SDS011;3028;49.468;7.694;2023-02-01T06:22:14;11.98;;;3.65;;
5999;SDS011;3028;49.468;7.694;2023-02-01T06:24:16;7.57;;;3.80;;
5999;SDS011;3028;49.468;7.694;2023-02-01T06:26:18;3.08;;;2.80;;
5999;SDS011;3028;49.468;7.694;2023-02-01T06:28:20;3.42;;;3.10;;
5999;SDS011;3028;49.468;7.694;2023-02-01T06:30:22;4.03;;;2.35;;
5999;SDS011;3028;49.468;7.694;2023-02-01T06:32:25;3.38;;;3.08;;
5999;SDS011;3028;49.468;7.694;2023-02-01T06:34:27;4.05;;;2.90;;
5999;SDS011;3028;49.468;7.694;2023-02-01T06:36:29;3.80;;;3.33;;
5999;SDS011;3028;49.468;7.694;2023-02-01T06:38:30;2.92;;;2.63;;
5999;SDS011;3028;49.468;7.694;2023-02-01T06:40:36;5.45;;;2.67;;
5999;SDS011;3028;49.468;7.694;2023-02-01T06:42:39;4.10;;;2.85;;
5999;SDS011;3028;49.468;7.694;2023-02-01T06:44:41;5.45;;;4.10;;
5999;SDS011;3028;49.468;7.694;2023-02-01T06:46:43;2.78;;;2.58;;
5999;SDS011;3028;49.468;7.694;2023-02-01T06:48:45;3.97;;;3.65;;
5999;SDS011;3028;49.468;7.694;2023-02-01T06:50:47;8.02;;;4.05;;
5999;SDS011;3028;49.468;7.694;2023-02-01T06:52:52;5.47;;;5.00;;
5999;SDS011;3028;49.468;7.694;2023-02-01T06:54:54;6.15;;;4.80;;
5999;SDS011;3028;49.468;7.694;2023-02-01T06:56:55;9.55;;;4.65;;
5999;SDS011;3028;49.468;7.694;2023-02-01T06:58:57;7.20;;;3.70;;
5999;SDS011;3028;49.468;7.694;2023-02-01T07:01:05;8.90;;;4.38;;
5999;SDS011;3028;49.468;7.694;2023-02-01T07:03:08;9.00;;;4.93;;
5999;SDS011;3028;49.468;7.694;2023-02-01T07:05:10;5.90;;;4.22;;
5999;SDS011;3028;49.468;7.694;2023-02-01T07:07:12;4.05;;;3.17;;
5999;SDS011;3028;49.468;7.694;2023-02-01T07:09:14;3.25;;;3.05;;
5999;SDS011;3028;49.468;7.694;2023-02-01T07:11:17;4.20;;;3.67;;
5999;SDS011;3028;49.468;7.694;2023-02-01T07:13:20;3.08;;;2.88;;
5999;SDS011;3028;49.468;7.694;2023-02-01T07:15:23;3.45;;;3.15;;
5999;SDS011;3028;49.468;7.694;2023-02-01T07:17:27;7.45;;;2.83;;
5999;SDS011;3028;49.468;7.694;2023-02-01T07:19:30;3.08;;;2.83;;
5999;SDS011;3028;49.468;7.694;2023-02-01T07:21:32;3.70;;;2.85;;
5999;SDS011;3028;49.468;7.694;2023-02-01T07:23:35;7.82;;;3.75;;
5999;SDS011;3028;49.468;7.694;2023-02-01T07:25:37;6.13;;;3.92;;
5999;SDS011;3028;49.468;7.694;2023-02-01T07:27:38;6.65;;;5.03;;
5999;SDS011;3028;49.468;7.694;2023-02-01T07:29:44;5.22;;;3.65;;
5999;SDS011;3028;49.468;7.694;2023-02-01T07:31:46;4.47;;;4.05;;
5999;SDS011;3028;49.468;7.694;2023-02-01T07:33:50;5.43;;;3.83;;
5999;SDS011;3028;49.468;7.694;2023-02-01T07:35:59;4.70;;;4.30;;
5999;SDS011;3028;49.468;7.694;2023-02-01T07:38:02;6.47;;;4.00;;
5999;SDS011;3028;49.468;7.694;2023-02-01T07:40:04;5.65;;;4.40;;
5999;SDS011;3028;49.468;7.694;2023-02-01T07:42:07;5.35;;;3.95;;
5999;SDS011;3028;49.468;7.694;2023-02-01T07:44:09;9.25;;;4.30;;
5999;SDS011;3028;49.468;7.694;2023-02-01T07:46:12;13.95;;;4.82;;
5999;SDS011;3028;49.468;7.694;2023-02-01T07:48:16;5.65;;;4.00;;
5999;SDS011;3028;49.468;7.694;2023-02-01T07:50:24;8.70;;;4.40;;
5999;SDS011;3028;49.468;7.694;2023-02-01T07:52:29;6.70;;;3.75;;
5999;SDS011;3028;49.468;7.694;2023-02-01T07:54:35;20.10;;;4.53;;
5999;SDS011;3028;49.468;7.694;2023-02-01T07:56:37;5.85;;;3.78;;
5999;SDS011;3028;49.468;7.694;2023-02-01T07:58:47;7.00;;;3.47;;
5999;SDS011;3028;49.468;7.694;2023-02-01T08:00:53;11.68;;;3.90;;
5999;SDS011;3028;49.468;7.694;2023-02-01T08:03:20;4.25;;;3.90;;
5999;SDS011;3028;49.468;7.694;2023-02-01T08:05:22;4.53;;;3.95;;
5999;SDS011;3028;49.468;7.694;2023-02-01T08:07:24;8.90;;;4.50;;
5999;SDS011;3028;49.468;7.694;2023-02-01T08:09:26;4.78;;;4.28;;
5999;SDS011;3028;49.468;7.694;2023-02-01T08:11:28;7.40;;;4.53;;
5999;SDS011;3028;49.468;7.694;2023-02-01T08:13:30;3.95;;;3.65;;
5999;SDS011;3028;49.468;7.694;2023-02-01T08:15:36;6.07;;;4.20;;
5999;SDS011;3028;49.468;7.694;2023-02-01T08:17:46;8.95;;;4.10;;
5999;SDS011;3028;49.468;7.694;2023-02-01T08:19:51;4.30;;;3.42;;
5999;SDS011;3028;49.468;7.694;2023-02-01T08:21:53;3.80;;;3.50;;
5999;SDS011;3028;49.468;7.694;2023-02-01T08:24:04;5.57;;;4.03;;
5999;SDS011;3028;49.468;7.694;2023-02-01T08:26:08;6.32;;;3.50;;
5999;SDS011;3028;49.468;7.694;2023-02-01T08:28:10;6.20;;;3.75;;
5999;SDS011;3028;49.468;7.694;2023-02-01T08:30:12;5.90;;;2.90;;
5999;SDS011;3028;49.468;7.694;2023-02-01T08:32:14;4.95;;;3.92;;
5999;SDS011;3028;49.468;7.694;2023-02-01T08:34:16;3.65;;;3.08;;
5999;SDS011;3028;49.468;7.694;2023-02-01T08:36:18;4.28;;;3.22;;
5999;SDS011;3028;49.468;7.694;2023-02-01T08:38:24;8.18;;;3.47;;
5999;SDS011;3028;49.468;7.694;2023-02-01T08:40:26;4.82;;;2.70;;
5999;SDS011;3028;49.468;7.694;2023-02-01T08:42:28;6.78;;;2.45;;
5999;SDS011;3028;49.468;7.694;2023-02-01T08:44:56;12.00;;;3.92;;
5999;SDS011;3028;49.468;7.694;2023-02-01T08:46:58;2.42;;;2.05;;
5999;SDS011;3028;49.468;7.694;2023-02-01T08:48:59;9.43;;;3.22;;
5999;SDS011;3028;49.468;7.694;2023-02-01T08:51:02;5.55;;;3.47;;
5999;SDS011;3028;49.468;7.694;2023-02-01T08:53:07;5.20;;;3.00;;
5999;SDS011;3028;49.468;7.694;2023-02-01T08:55:09;3.38;;;2.72;;
5999;SDS011;3028;49.468;7.694;2023-02-01T08:57:11;4.13;;;3.13;;
5999;SDS011;3028;49.468;7.694;2023-02-01T08:59:13;3.00;;;2.70;;
5999;SDS011;3028;49.468;7.694;2023-02-01T09:01:15;5.30;;;2.88;;
5999;SDS011;3028;49.468;7.694;2023-02-01T09:03:18;3.83;;;2.53;;
5999;SDS011;3028;49.468;7.694;2023-02-01T09:05:20;2.78;;;2.28;;
5999;SDS011;3028;49.468;7.694;2023-02-01T09:07:23;5.57;;;3.03;;
5999;SDS011;3028;49.468;7.694;2023-02-01T09:09:27;7.82;;;2.25;;
5999;SDS011;3028;49.468;7.694;2023-02-01T09:11:29;12.55;;;3.55;;
5999;SDS011;3028;49.468;7.694;2023-02-01T09:13:31;8.27;;;3.92;;
5999;SDS011;3028;49.468;7.694;2023-02-01T09:15:33;15.10;;;3.58;;
5999;SDS011;3028;49.468;7.694;2023-02-01T09:17:35;4.85;;;2.85;;
5999;SDS011;3028;49.468;7.694;2023-02-01T09:19:37;7.97;;;2.85;;
5999;SDS011;3028;49.468;7.694;2023-02-01T09:21:40;4.38;;;2.20;;
5999;SDS011;3028;49.468;7.694;2023-02-01T09:23:42;12.02;;;3.20;;
5999;SDS011;3028;49.468;7.694;2023-02-01T09:25:44;3.97;;;2.55;;
5999;SDS011;3028;49.468;7.694;2023-02-01T09:27:46;8.68;;;3.20;;
5999;SDS011;3028;49.468;7.694;2023-02-01T09:29:49;9.02;;;2.95;;
5999;SDS011;3028;49.468;7.694;2023-02-01T09:31:54;7.85;;;3.13;;
5999;SDS011;3028;49.468;7.694;2023-02-01T09:34:04;5.80;;;2.70;;
5999;SDS011;3028;49.468;7.694;2023-02-01T09:36:06;4.57;;;2.40;;
5999;SDS011;3028;49.468;7.694;2023-02-01T09:38:09;8.95;;;4.07;;
5999;SDS011;3028;49.468;7.694;2023-02-01T09:40:13;9.25;;;3.10;;
5999;SDS011;3028;49.468;7.694;2023-02-01T09:42:19;7.82;;;2.55;;
5999;SDS011;3028;49.468;7.694;2023-02-01T09:46:53;6.28;;;2.22;;
5999;SDS011;3028;49.468;7.694;2023-02-01T09:48:58;7.65;;;3.42;;
5999;SDS011;3028;49.468;7.694;2023-02-01T09:51:06;6.45;;;2.30;;
5999;SDS011;3028;49.468;7.694;2023-02-01T09:53:34;5.43;;;2.63;;
5999;SDS011;3028;49.468;7.694;2023-02-01T09:55:45;7.07;;;2.53;;
5999;SDS011;3028;49.468;7.694;2023-02-01T09:57:57;3.67;;;3.10;;
5999;SDS011;3028;49.468;7.694;2023-02-01T10:00:07;9.77;;;3.00;;
5999;SDS011;3028;49.468;7.694;2023-02-01T10:02:22;18.08;;;3.72;;
5999;SDS011;3028;49.468;7.694;2023-02-01T10:04:27;4.18;;;3.15;;
5999;SDS011;3028;49.468;7.694;2023-02-01T10:14:01;4.63;;;2.58;;
5999;SDS011;3028;49.468;7.694;2023-02-01T10:26:22;5.43;;;2.28;;
5999;SDS011;3028;49.468;7.694;2023-02-01T10:28:25;9.43;;;2.30;;
5999;SDS011;3028;49.468;7.694;2023-02-01T10:30:29;14.55;;;3.38;;
5999;SDS011;3028;49.468;7.694;2023-02-01T10:32:35;8.25;;;2.70;;
5999;SDS011;3028;49.468;7.694;2023-02-01T10:34:41;7.50;;;2.88;;
5999;SDS011;3028;49.468;7.694;2023-02-01T10:37:00;7.07;;;2.60;;
5999;SDS011;3028;49.468;7.694;2023-02-01T10:39:03;5.68;;;2.38;;
5999;SDS011;3028;49.468;7.694;2023-02-01T10:41:12;4.88;;;2.30;;
5999;SDS011;3028;49.468;7.694;2023-02-01T10:43:18;9.82;;;2.92;;
5999;SDS011;3028;49.468;7.694;2023-02-01T10:45:26;2.60;;;2.08;;
5999;SDS011;3028;49.468;7.694;2023-02-01T10:47:29;7.13;;;3.22;;
5999;SDS011;3028;49.468;7.694;2023-02-01T10:51:51;8.63;;;3.33;;
5999;SDS011;3028;49.468;7.694;2023-02-01T10:54:03;10.65;;;2.72;;
5999;SDS011;3028;49.468;7.694;2023-02-01T10:56:25;3.90;;;3.13;;
5999;SDS011;3028;49.468;7.694;2023-02-01T10:58:32;6.85;;;3.33;;
5999;SDS011;3028;49.468;7.694;2023-02-01T11:00:37;3.13;;;2.35;;
5999;SDS011;3028;49.468;7.694;2023-02-01T11:02:50;5.70;;;2.22;;
5999;SDS011;3028;49.468;7.694;2023-02-01T11:05:03;5.38;;;2.78;;
5999;SDS011;3028;49.468;7.694;2023-02-01T11:07:12;10.10;;;2.63;;
5999;SDS011;3028;49.468;7.694;2023-02-01T11:09:19;1.90;;;1.80;;
5999;SDS011;3028;49.468;7.694;2023-02-01T11:11:23;8.52;;;3.15;;
5999;SDS011;3028;49.468;7.694;2023-02-01T11:13:28;7.90;;;3.83;;
5999;SDS011;3028;49.468;7.694;2023-02-01T11:15:33;4.45;;;2.35;;
5999;SDS011;3028;49.468;7.694;2023-02-01T11:17:35;8.88;;;2.97;;
5999;SDS011;3028;49.468;7.694;2023-02-01T11:22:05;2.72;;;2.00;;
5999;SDS011;3028;49.468;7.694;2023-02-01T11:24:11;9.60;;;3.45;;
5999;SDS011;3028;49.468;7.694;2023-02-01T11:26:27;8.00;;;3.97;;
5999;SDS011;3028;49.468;7.694;2023-02-01T11:28:31;4.78;;;2.13;;
5999;SDS011;3028;49.468;7.694;2023-02-01T11:30:35;31.92;;;5.13;;
5999;SDS011;3028;49.468;7.694;2023-02-01T11:32:39;2.63;;;2.45;;
5999;SDS011;3028;49.468;7.694;2023-02-01T11:34:43;3.40;;;2.28;;
5999;SDS011;3028;49.468;7.694;2023-02-01T11:36:48;4.97;;;2.83;;
5999;SDS011;3028;49.468;7.694;2023-02-01T11:38:52;5.35;;;2.33;;
5999;SDS011;3028;49.468;7.694;2023-02-01T11:41:10;12.38;;;3.20;;
5999;SDS011;3028;49.468;7.694;2023-02-01T11:43:27;13.25;;;2.65;;
5999;SDS011;3028;49.468;7.694;2023-02-01T11:45:30;4.05;;;2.20;;
5999;SDS011;3028;49.468;7.694;2023-02-01T11:47:39;3.35;;;2.83;;
5999;SDS011;3028;49.468;7.694;2023-02-01T11:49:42;17.27;;;2.60;;
5999;SDS011;3028;49.468;7.694;2023-02-01T11:52:18;11.23;;;3.25;;
5999;SDS011;3028;49.468;7.694;2023-02-01T12:20:26;12.65;;;3.00;;
5999;SDS011;3028;49.468;7.694;2023-02-01T12:35:13;7.13;;;1.80;;
5999;SDS011;3028;49.468;7.694;2023-02-01T12:42:38;2.05;;;1.90;;
5999;SDS011;3028;49.468;7.694;2023-02-01T12:49:22;2.45;;;1.60;;
5999;SDS011;3028;49.468;7.694;2023-02-01T12:52:00;4.10;;;1.90;;
5999;SDS011;3028;49.468;7.694;2023-02-01T12:56:22;4.53;;;3.03;;
5999;SDS011;3028;49.468;7.694;2023-02-01T12:58:46;5.03;;;1.55;;
5999;SDS011;3028;49.468;7.694;2023-02-01T13:05:50;4.95;;;2.45;;
5999;SDS011;3028;49.468;7.694;2023-02-01T13:08:03;9.77;;;2.22;;
5999;SDS011;3028;49.468;7.694;2023-02-01T13:10:15;7.18;;;2.90;;
5999;SDS011;3028;49.468;7.694;2023-02-01T13:12:19;8.60;;;2.85;;
5999;SDS011;3028;49.468;7.694;2023-02-01T13:17:05;5.57;;;2.15;;
5999;SDS011;3028;49.468;7.694;2023-02-01T13:19:35;5.13;;;1.95;;
5999;SDS011;3028;49.468;7.694;2023-02-01T13:21:58;2.40;;;2.15;;
5999;SDS011;3028;49.468;7.694;2023-02-01T13:26:35;8.55;;;2.30;;
5999;SDS011;3028;49.468;7.694;2023-02-01T13:45:15;6.03;;;2.65;;
5999;SDS011;3028;49.468;7.694;2023-02-01T13:47:23;7.68;;;2.25;;
5999;SDS011;3028;49.468;7.694;2023-02-01T13:49:31;3.47;;;1.83;;
5999;SDS011;3028;49.468;7.694;2023-02-01T13:51:42;3.95;;;1.88;;
5999;SDS011;3028;49.468;7.694;2023-02-01T13:53:49;3.67;;;1.95;;
5999;SDS011;3028;49.468;7.694;2023-02-01T13:55:59;5.18;;;1.73;;
5999;SDS011;3028;49.468;7.694;2023-02-01T14:00:32;8.60;;;1.90;;
5999;SDS011;3028;49.468;7.694;2023-02-01T14:04:50;5.68;;;2.33;;
5999;SDS011;3028;49.468;7.694;2023-02-01T14:06:53;3.22;;;1.80;;
5999;SDS011;3028;49.468;7.694;2023-02-01T14:09:11;2.78;;;1.83;;
5999;SDS011;3028;49.468;7.694;2023-02-01T14:16:29;9.82;;;2.08;;
5999;SDS011;3028;49.468;7.694;2023-02-01T14:20:43;5.32;;;2.15;;
5999;SDS011;3028;49.468;7.694;2023-02-01T14:22:47;9.57;;;1.98;;
5999;SDS011;3028;49.468;7.694;2023-02-01T14:24:56;3.58;;;1.45;;
5999;SDS011;3028;49.468;7.694;2023-02-01T14:26:59;1.63;;;1.10;;
5999;SDS011;3028;49.468;7.694;2023-02-01T14:29:32;11.52;;;1.73;;
5999;SDS011;3028;49.468;7.694;2023-02-01T14:34:14;6.10;;;1.80;;
5999;SDS011;3028;49.468;7.694;2023-02-01T14:36:18;3.28;;;2.42;;
5999;SDS011;3028;49.468;7.694;2023-02-01T14:38:19;4.32;;;2.65;;
5999;SDS011;3028;49.468;7.694;2023-02-01T14:40:25;3.40;;;2.03;;
5999;SDS011;3028;49.468;7.694;2023-02-01T14:42:32;2.13;;;1.65;;
5999;SDS011;3028;49.468;7.694;2023-02-01T14:44:36;8.82;;;2.00;;
5999;SDS011;3028;49.468;7.694;2023-02-01T14:49:18;2.15;;;1.70;;
5999;SDS011;3028;49.468;7.694;2023-02-01T14:51:20;3.95;;;2.40;;
5999;SDS011;3028;49.468;7.694;2023-02-01T14:53:24;2.60;;;2.25;;
5999;SDS011;3028;49.468;7.694;2023-02-01T14:55:39;8.68;;;1.55;;
5999;SDS011;3028;49.468;7.694;2023-02-01T14:57:50;8.98;;;2.72;;
5999;SDS011;3028;49.468;7.694;2023-02-01T14:59:59;10.57;;;2.22;;
5999;SDS011;3028;49.468;7.694;2023-02-01T15:02:21;4.72;;;2.60;;
5999;SDS011;3028;49.468;7.694;2023-02-01T15:04:25;1.50;;;1.40;;
5999;SDS011;3028;49.468;7.694;2023-02-01T15:08:41;6.25;;;2.30;;
5999;SDS011;3028;49.468;7.694;2023-02-01T15:10:44;3.33;;;2.38;;
5999;SDS011;3028;49.468;7.694;2023-02-01T15:12:47;7.68;;;2.47;;
5999;SDS011;3028;49.468;7.694;2023-02-01T15:17:23;1.88;;;1.73;;
5999;SDS011;3028;49.468;7.694;2023-02-01T15:19:34;4.78;;;2.38;;
5999;SDS011;3028;49.468;7.694;2023-02-01T15:21:46;3.70;;;2.28;;
5999;SDS011;3028;49.468;7.694;2023-02-01T15:23:49;1.70;;;1.60;;
5999;SDS011;3028;49.468;7.694;2023-02-01T15:25:52;2.95;;;1.92;;
5999;SDS011;3028;49.468;7.694;2023-02-01T15:27:54;9.32;;;2.05;;
5999;SDS011;3028;49.468;7.694;2023-02-01T15:30:39;5.20;;;1.92;;
5999;SDS011;3028;49.468;7.694;2023-02-01T15:32:30;3.30;;;1.98;;
5999;SDS011;3028;49.468;7.694;2023-02-01T15:34:46;10.38;;;1.60;;
5999;SDS011;3028;49.468;7.694;2023-02-01T15:36:52;3.60;;;2.63;;
5999;SDS011;3028;49.468;7.694;2023-02-01T15:41:33;7.20;;;2.83;;
5999;SDS011;3028;49.468;7.694;2023-02-01T15:45:38;6.15;;;1.60;;
5999;SDS011;3028;49.468;7.694;2023-02-01T15:47:40;4.95;;;1.50;;
5999;SDS011;3028;49.468;7.694;2023-02-01T15:49:43;4.53;;;2.67;;
5999;SDS011;3028;49.468;7.694;2023-02-01T15:51:47;7.80;;;2.78;;
5999;SDS011;3028;49.468;7.694;2023-02-01T15:53:56;4.55;;;2.58;;
5999;SDS011;3028;49.468;7.694;2023-02-01T15:56:06;4.07;;;2.70;;
5999;SDS011;3028;49.468;7.694;2023-02-01T15:58:08;6.18;;;4.00;;
5999;SDS011;3028;49.468;7.694;2023-02-01T16:00:21;5.55;;;2.65;;
5999;SDS011;3028;49.468;7.694;2023-02-01T16:02:33;6.20;;;1.65;;
5999;SDS011;3028;49.468;7.694;2023-02-01T16:04:47;3.92;;;1.67;;
5999;SDS011;3028;49.468;7.694;2023-02-01T16:06:53;2.35;;;2.22;;
5999;SDS011;3028;49.468;7.694;2023-02-01T16:09:03;3.92;;;2.70;;
5999;SDS011;3028;49.468;7.694;2023-02-01T16:13:14;7.13;;;2.55;;